Time;durP1;ratioP1;P1;durP2;ratioP2;P2;SDS_P1;SDS_P2;PMS_P1;PMS_P2;Temp;Humidity;BMP_temperature;BMP_pressure;BME280_temperature;BME280_humidity;BME280_pressure;Samples;Min_cycle;Max_cycle;Signal;HPM_P1;HPM_P2
2023/07/28 00:00:14;;;;;;;10.83;4.40;;;14.30;99.90;;;;;;5374537;23;657224;-71
2023/07/28 00:03:01;;;;;;;17.30;4.83;;;14.40;99.90;;;;;;5350131;23;657614;-71
2023/07/28 00:05:48;;;;;;;10.00;4.60;;;14.40;99.90;;;;;;5373437;23;658426;-72
2023/07/28 00:08:35;;;;;;;9.10;4.60;;;14.40;99.90;;;;;;5349974;23;658033;-70
2023/07/28 00:11:24;;;;;;;7.63;4.07;;;14.40;99.90;;;;;;5374571;23;656925;-71
2023/07/28 00:14:11;;;;;;;7.60;4.50;;;14.40;99.90;;;;;;5352525;23;656375;-71
2023/07/28 00:16:58;;;;;;;10.17;4.27;;;14.30;99.90;;;;;;5374967;23;657403;-70
2023/07/28 00:19:45;;;;;;;11.23;5.30;;;14.30;99.90;;;;;;5350715;23;657783;-71
2023/07/28 00:22:33;;;;;;;9.47;4.57;;;14.40;99.90;;;;;;5373350;23;658701;-73
2023/07/28 00:25:22;;;;;;;7.60;4.20;;;14.30;99.90;;;;;;5366089;23;656675;-70
2023/07/28 00:28:10;;;;;;;6.97;4.20;;;14.40;99.90;;;;;;5369592;23;656550;-71
2023/07/28 00:30:57;;;;;;;6.97;3.97;;;14.40;99.90;;;;;;5344622;23;657781;-70
2023/07/28 00:33:45;;;;;;;8.20;3.97;;;14.40;99.90;;;;;;5370049;23;656893;-71
2023/07/28 00:36:32;;;;;;;8.00;4.00;;;14.40;99.90;;;;;;5373034;23;658143;-71
2023/07/28 00:39:19;;;;;;;7.43;4.00;;;14.40;99.90;;;;;;5373944;23;656186;-71
2023/07/28 00:42:09;;;;;;;6.97;3.87;;;14.40;99.90;;;;;;5350645;23;657189;-71
2023/07/28 00:44:57;;;;;;;8.90;4.10;;;14.50;99.90;;;;;;5351477;23;656666;-70
2023/07/28 00:47:46;;;;;;;7.83;3.80;;;14.50;99.90;;;;;;5369323;23;656976;-70
2023/07/28 00:50:33;;;;;;;9.07;4.13;;;14.50;99.90;;;;;;5373769;23;656917;-71
2023/07/28 00:53:21;;;;;;;6.07;3.50;;;14.40;99.90;;;;;;5350869;23;656450;-71
2023/07/28 00:56:08;;;;;;;9.53;3.40;;;14.50;99.90;;;;;;5378000;23;657688;-70
2023/07/28 00:58:55;;;;;;;10.13;3.50;;;14.50;99.90;;;;;;5351016;23;656444;-70
2023/07/28 01:01:44;;;;;;;6.07;3.60;;;14.50;99.90;;;;;;5372316;23;658270;-71
2023/07/28 01:04:31;;;;;;;5.10;3.40;;;14.50;99.90;;;;;;5351647;23;656841;-71
2023/07/28 01:07:22;;;;;;;4.63;3.40;;;14.60;99.90;;;;;;5374518;23;657406;-72
2023/07/28 01:10:11;;;;;;;6.43;3.50;;;14.60;99.90;;;;;;5345795;23;657659;-71
2023/07/28 01:12:58;;;;;;;6.10;3.40;;;14.60;99.90;;;;;;5345779;23;656428;-71
2023/07/28 01:15:45;;;;;;;11.63;3.87;;;14.70;99.90;;;;;;5351707;23;656384;-71
2023/07/28 01:18:34;;;;;;;5.70;3.20;;;14.70;99.90;;;;;;5377725;23;658348;-71
2023/07/28 01:21:23;;;;;;;5.57;3.40;;;14.70;99.90;;;;;;5352311;23;656432;-71
2023/07/28 01:24:14;;;;;;;6.43;3.17;;;14.70;99.90;;;;;;5365320;23;656653;-70
2023/07/28 01:27:02;;;;;;;7.97;3.37;;;14.70;99.90;;;;;;5350627;23;656169;-71
2023/07/28 01:29:50;;;;;;;6.83;3.87;;;14.70;99.90;;;;;;5374191;23;656260;-71
2023/07/28 01:32:37;;;;;;;8.20;3.10;;;14.70;99.90;;;;;;5374616;23;657462;-72
2023/07/28 01:35:26;;;;;;;7.07;3.13;;;14.70;99.90;;;;;;5374674;23;656507;-71
2023/07/28 01:38:13;;;;;;;4.37;2.70;;;14.80;99.90;;;;;;5346993;23;658591;-71
2023/07/28 01:41:01;;;;;;;3.77;2.30;;;15.00;99.90;;;;;;5352267;23;656355;-71
2023/07/28 01:43:49;;;;;;;7.80;2.53;;;15.10;99.90;;;;;;5374049;23;658159;-72
2023/07/28 01:46:36;;;;;;;9.10;2.20;;;15.30;99.90;;;;;;5347846;23;657295;-71
2023/07/28 01:49:23;;;;;;;5.80;2.40;;;15.50;99.90;;;;;;5374957;23;657341;-70
2023/07/28 01:52:11;;;;;;;8.83;2.40;;;15.60;99.90;;;;;;5351698;23;656970;-71
2023/07/28 01:54:58;;;;;;;3.43;2.30;;;15.70;99.90;;;;;;5375876;23;657858;-70
2023/07/28 01:57:55;;;;;;;4.57;2.30;;;15.70;99.90;;;;;;5351232;23;656302;-70
2023/07/28 02:00:46;;;;;;;4.00;2.13;;;15.80;99.90;;;;;;5319297;23;656797;-71
2023/07/28 02:03:33;;;;;;;2.77;2.20;;;15.80;99.90;;;;;;5348223;23;656952;-71
2023/07/28 02:06:20;;;;;;;4.33;2.30;;;15.80;99.90;;;;;;5355828;23;656539;-70
2023/07/28 02:09:07;;;;;;;5.10;2.20;;;15.90;99.90;;;;;;5379560;23;657038;-70
2023/07/28 02:11:54;;;;;;;3.30;2.00;;;16.10;99.90;;;;;;5376868;23;656997;-71
2023/07/28 02:14:42;;;;;;;4.20;2.50;;;16.10;99.90;;;;;;5354485;23;657350;-71
2023/07/28 02:17:30;;;;;;;6.57;2.23;;;16.00;99.90;;;;;;5376869;23;656401;-72
2023/07/28 02:20:17;;;;;;;5.23;2.33;;;16.00;99.90;;;;;;5348175;23;656912;-71
2023/07/28 02:23:05;;;;;;;4.63;2.13;;;16.00;99.90;;;;;;5374162;23;658212;-70
2023/07/28 02:25:52;;;;;;;3.63;2.17;;;16.00;99.90;;;;;;5380727;23;657821;-71
2023/07/28 02:28:39;;;;;;;6.33;2.87;;;16.00;99.90;;;;;;5376107;23;656483;-71
2023/07/28 02:31:27;;;;;;;5.53;2.33;;;16.00;99.90;;;;;;5352477;23;658146;-71
2023/07/28 02:34:15;;;;;;;4.63;2.47;;;15.90;99.90;;;;;;5376036;23;656687;-71
2023/07/28 02:37:02;;;;;;;4.70;2.43;;;15.90;99.90;;;;;;5346539;23;657625;-71
2023/07/28 02:39:50;;;;;;;5.10;2.33;;;15.80;99.90;;;;;;5373375;23;657075;-70
2023/07/28 02:42:37;;;;;;;4.33;2.13;;;15.80;99.90;;;;;;5374769;23;656848;-71
2023/07/28 02:45:25;;;;;;;5.63;2.47;;;15.70;99.90;;;;;;5371497;23;656925;-70
2023/07/28 02:48:12;;;;;;;5.93;2.60;;;15.70;99.90;;;;;;5373857;23;658303;-71
2023/07/28 02:51:02;;;;;;;7.33;2.63;;;15.60;99.90;;;;;;5373909;23;656866;-70
2023/07/28 02:53:49;;;;;;;3.23;2.30;;;15.50;99.90;;;;;;5378289;23;656193;-70
2023/07/28 02:56:37;;;;;;;8.60;2.60;;;15.50;99.90;;;;;;5350410;23;656613;-71
2023/07/28 02:59:24;;;;;;;9.83;2.87;;;15.40;99.90;;;;;;5374583;23;656546;-72
2023/07/28 03:02:11;;;;;;;8.00;2.77;;;15.40;99.90;;;;;;5345924;23;656568;-72
2023/07/28 03:04:59;;;;;;;4.77;2.50;;;15.40;99.90;;;;;;5374324;23;657139;-71
2023/07/28 03:07:49;;;;;;;6.03;2.53;;;15.20;99.90;;;;;;5351519;23;656379;-69
2023/07/28 03:10:36;;;;;;;5.97;2.50;;;15.20;99.90;;;;;;5346205;23;657701;-71
2023/07/28 03:13:24;;;;;;;7.90;2.53;;;15.20;99.90;;;;;;5373510;23;656280;-71
2023/07/28 03:16:11;;;;;;;4.03;2.67;;;15.20;99.90;;;;;;5346129;23;656389;-70
2023/07/28 03:18:58;;;;;;;9.47;2.90;;;15.00;99.90;;;;;;5374657;23;658867;-70
2023/07/28 03:21:45;;;;;;;10.10;2.80;;;15.00;99.90;;;;;;5351371;23;656714;-70
2023/07/28 03:24:34;;;;;;;10.23;2.60;;;15.00;99.90;;;;;;5373862;23;658652;-71
2023/07/28 03:27:21;;;;;;;5.90;2.37;;;15.00;99.90;;;;;;5350038;23;657479;-71
2023/07/28 03:30:10;;;;;;;6.30;2.80;;;14.90;99.90;;;;;;5373150;23;657225;-72
2023/07/28 03:32:57;;;;;;;7.17;3.00;;;14.90;99.90;;;;;;5350308;23;657660;-70
2023/07/28 03:35:44;;;;;;;9.67;2.40;;;14.90;99.90;;;;;;5374887;23;656843;-71
2023/07/28 03:38:31;;;;;;;3.30;2.37;;;15.00;99.90;;;;;;5351622;23;656446;-70
2023/07/28 03:41:20;;;;;;;7.63;2.90;;;15.00;99.90;;;;;;5373952;23;656519;-71
2023/07/28 03:44:07;;;;;;;6.10;2.70;;;14.90;99.90;;;;;;5346216;23;657491;-71
2023/07/28 03:46:55;;;;;;;4.60;2.43;;;14.80;99.90;;;;;;5371012;23;656480;-71
2023/07/28 03:49:42;;;;;;;3.33;2.53;;;14.70;99.90;;;;;;5379188;23;656511;-71
2023/07/28 03:52:29;;;;;;;8.10;2.40;;;14.70;99.90;;;;;;5374172;23;656944;-71
2023/07/28 03:55:17;;;;;;;7.53;3.13;;;14.80;99.90;;;;;;5350411;23;657538;-70
2023/07/28 03:58:05;;;;;;;7.23;2.77;;;14.80;99.90;;;;;;5373773;23;656125;-71
2023/07/28 04:00:53;;;;;;;5.97;2.60;;;14.80;99.90;;;;;;5348023;23;657136;-72
2023/07/28 04:03:40;;;;;;;6.77;2.50;;;14.80;99.90;;;;;;5350336;23;656417;-70
2023/07/28 04:06:40;;;;;;;9.00;2.87;;;14.90;99.90;;;;;;5374254;23;657682;-71
2023/07/28 04:09:27;;;;;;;8.53;2.50;;;14.90;99.90;;;;;;5318447;23;657204;-71
2023/07/28 04:12:15;;;;;;;6.83;2.93;;;14.90;99.90;;;;;;5366811;23;656383;-70
2023/07/28 04:15:04;;;;;;;5.93;2.93;;;15.00;99.90;;;;;;5377285;23;656610;-70
2023/07/28 04:17:52;;;;;;;5.27;3.00;;;15.00;99.90;;;;;;5350964;23;656672;-71
2023/07/28 04:20:39;;;;;;;5.90;3.33;;;15.00;99.90;;;;;;5375050;23;656361;-71
2023/07/28 04:23:26;;;;;;;8.35;3.00;;;15.10;99.90;;;;;;5346148;23;657161;-72
2023/07/28 04:26:13;;;;;;;7.13;3.27;;;15.20;99.90;;;;;;5373973;23;657111;-71
2023/07/28 04:29:00;;;;;;;6.93;2.83;;;15.20;99.90;;;;;;5351402;23;656633;-70
2023/07/28 04:31:49;;;;;;;7.33;3.33;;;15.30;99.90;;;;;;5374171;23;657230;-71
2023/07/28 04:34:36;;;;;;;4.67;3.00;;;15.30;99.90;;;;;;5350170;23;656407;-71
2023/07/28 04:37:23;;;;;;;3.40;2.67;;;15.40;99.90;;;;;;5372975;23;657549;-71
2023/07/28 04:40:11;;;;;;;9.33;2.83;;;15.30;99.90;;;;;;5351144;23;656779;-71
2023/07/28 04:42:58;;;;;;;3.27;2.40;;;15.40;99.90;;;;;;5373357;23;657161;-71
2023/07/28 04:45:46;;;;;;;5.40;2.80;;;15.40;99.90;;;;;;5350832;23;656720;-72
2023/07/28 04:48:34;;;;;;;6.30;2.73;;;15.30;99.90;;;;;;5377824;23;657522;-72
2023/07/28 04:51:21;;;;;;;10.00;3.40;;;15.40;99.90;;;;;;5344605;23;656725;-71
2023/07/28 04:54:09;;;;;;;7.53;3.10;;;15.40;99.90;;;;;;5372292;23;657418;-72
2023/07/28 04:56:56;;;;;;;7.00;3.20;;;15.50;99.90;;;;;;5350083;23;656634;-71
2023/07/28 04:59:43;;;;;;;8.30;4.37;;;15.60;99.90;;;;;;5377315;23;657401;-71
2023/07/28 05:02:30;;;;;;;5.10;3.20;;;15.60;99.90;;;;;;5350774;23;656517;-71
2023/07/28 05:05:19;;;;;;;12.90;4.20;;;15.70;99.90;;;;;;5378178;23;658210;-71
2023/07/28 05:08:06;;;;;;;9.70;4.33;;;15.70;99.90;;;;;;5350227;23;657442;-71
2023/07/28 05:10:53;;;;;;;8.47;4.50;;;15.70;99.90;;;;;;5374643;23;657203;-72
2023/07/28 05:13:40;;;;;;;9.80;4.17;;;15.80;99.90;;;;;;5352719;23;657460;-70
2023/07/28 05:16:27;;;;;;;9.73;4.10;;;15.70;99.90;;;;;;5375725;23;657612;-71
2023/07/28 05:19:15;;;;;;;8.03;4.20;;;15.80;99.90;;;;;;5369571;23;656735;-70
2023/07/28 05:22:06;;;;;;;8.83;4.10;;;15.90;99.90;;;;;;5376223;23;657014;-71
2023/07/28 05:24:53;;;;;;;9.20;4.30;;;15.90;99.90;;;;;;5348772;23;657034;-71
2023/07/28 05:27:41;;;;;;;10.60;4.23;;;16.00;99.90;;;;;;5353408;23;657070;-70
2023/07/28 05:30:28;;;;;;;6.77;3.70;;;16.10;99.90;;;;;;5379381;23;658333;-71
2023/07/28 05:33:15;;;;;;;8.27;4.15;;;16.20;99.90;;;;;;5357331;23;656640;-69
2023/07/28 05:36:03;;;;;;;3.83;2.80;;;16.30;99.90;;;;;;5374981;23;658262;-70
2023/07/28 05:38:53;;;;;;;8.10;3.40;;;16.30;99.90;;;;;;5356565;23;656780;-70
2023/07/28 05:41:40;;;;;;;4.20;2.50;;;16.40;99.90;;;;;;5353188;23;657039;-70
2023/07/28 05:44:27;;;;;;;4.17;2.60;;;16.50;99.90;;;;;;5380370;23;657376;-70
2023/07/28 05:47:15;;;;;;;5.30;2.63;;;16.60;99.90;;;;;;5375038;23;656782;-70
2023/07/28 05:50:02;;;;;;;5.03;2.57;;;16.60;99.90;;;;;;5380464;23;656998;-70
2023/07/28 05:52:50;;;;;;;3.70;2.33;;;16.80;99.90;;;;;;5374057;23;657088;-69
2023/07/28 05:55:39;;;;;;;8.17;3.00;;;16.90;99.90;;;;;;5380377;23;658005;-71
2023/07/28 05:58:26;;;;;;;3.87;2.60;;;17.00;99.90;;;;;;5349489;23;656488;-71
2023/07/28 06:01:13;;;;;;;5.03;3.00;;;17.00;99.90;;;;;;5377798;23;656981;-71
2023/07/28 06:04:01;;;;;;;6.70;2.87;;;17.10;99.90;;;;;;5351573;23;656726;-70
2023/07/28 06:06:48;;;;;;;4.37;2.57;;;17.00;99.90;;;;;;5379351;23;657491;-71
2023/07/28 06:09:35;;;;;;;3.50;2.10;;;17.00;99.90;;;;;;5353049;23;657285;-70
2023/07/28 06:12:24;;;;;;;2.63;1.80;;;17.00;99.90;;;;;;5379395;23;656553;-73
2023/07/28 06:15:11;;;;;;;4.27;2.50;;;16.90;99.90;;;;;;5351733;23;657071;-70
2023/07/28 06:17:58;;;;;;;5.73;2.20;;;16.90;99.90;;;;;;5375210;23;657380;-69
2023/07/28 06:20:46;;;;;;;4.63;2.50;;;16.90;99.90;;;;;;5351366;23;656880;-71
2023/07/28 06:23:33;;;;;;;4.37;2.40;;;16.80;99.90;;;;;;5374231;23;658260;-71
2023/07/28 06:26:20;;;;;;;4.97;2.37;;;17.00;99.90;;;;;;5351540;23;656577;-70
2023/07/28 06:29:09;;;;;;;3.58;2.53;;;16.90;99.90;;;;;;5375205;23;657598;-70
2023/07/28 06:31:56;;;;;;;3.90;2.30;;;16.90;99.90;;;;;;5352417;23;656859;-70
2023/07/28 06:34:44;;;;;;;4.80;2.07;;;16.90;99.90;;;;;;5375097;23;657000;-71
2023/07/28 06:37:31;;;;;;;5.97;2.20;;;16.70;99.90;;;;;;5350877;23;656669;-69
2023/07/28 06:40:18;;;;;;;2.50;2.00;;;16.60;99.90;;;;;;5378804;23;657649;-71
2023/07/28 06:43:07;;;;;;;4.00;2.20;;;16.70;99.90;;;;;;5348098;23;656368;-71
2023/07/28 06:45:55;;;;;;;3.67;1.90;;;16.70;99.90;;;;;;5369257;23;657014;-71
2023/07/28 06:48:42;;;;;;;3.33;2.30;;;16.60;99.90;;;;;;5345086;23;656696;-71
2023/07/28 06:51:30;;;;;;;4.20;2.20;;;16.60;99.90;;;;;;5369029;23;656850;-70
2023/07/28 06:54:18;;;;;;;3.07;2.30;;;16.60;99.90;;;;;;5377035;23;657085;-71
2023/07/28 06:57:06;;;;;;;4.33;2.40;;;16.50;99.90;;;;;;5363446;23;656543;-69
2023/07/28 06:59:53;;;;;;;6.57;2.50;;;16.60;99.90;;;;;;5372853;23;657340;-70
2023/07/28 07:02:42;;;;;;;3.20;2.20;;;16.60;99.90;;;;;;5349903;23;657181;-71
2023/07/28 07:05:29;;;;;;;5.33;2.70;;;16.50;99.90;;;;;;5371052;23;657002;-72
2023/07/28 07:08:16;;;;;;;4.57;2.37;;;16.40;99.90;;;;;;5349597;23;656930;-72
2023/07/28 07:11:05;;;;;;;3.00;2.20;;;16.30;99.90;;;;;;5372178;23;657316;-71
2023/07/28 07:13:52;;;;;;;4.70;2.23;;;16.30;99.90;;;;;;5345174;23;657447;-70
2023/07/28 07:16:40;;;;;;;7.80;2.60;;;16.20;99.90;;;;;;5371757;23;656534;-71
2023/07/28 07:19:28;;;;;;;3.43;2.47;;;16.20;99.90;;;;;;5350641;23;656694;-71
2023/07/28 07:22:15;;;;;;;6.40;2.67;;;16.10;99.90;;;;;;5350302;23;656991;-72
2023/07/28 07:25:03;;;;;;;3.77;2.47;;;16.00;99.90;;;;;;5373409;23;657513;-72
2023/07/28 07:27:51;;;;;;;4.73;3.10;;;15.90;99.90;;;;;;5349482;23;656722;-72
2023/07/28 07:30:38;;;;;;;5.37;2.80;;;15.90;99.90;;;;;;5376537;23;657049;-71
2023/07/28 07:33:25;;;;;;;5.03;2.60;;;16.00;99.90;;;;;;5351676;23;656441;-72
2023/07/28 07:36:14;;;;;;;6.67;2.73;;;15.90;99.90;;;;;;5376717;23;656783;-71
2023/07/28 07:39:02;;;;;;;6.50;3.20;;;15.90;99.90;;;;;;5349302;23;657101;-71
2023/07/28 07:41:49;;;;;;;4.27;3.27;;;15.80;99.90;;;;;;5368037;23;655913;-71
2023/07/28 07:44:36;;;;;;;4.47;3.00;;;15.80;99.90;;;;;;5348109;23;657032;-70
2023/07/28 07:47:23;;;;;;;4.93;3.53;;;15.70;99.90;;;;;;5376693;23;657784;-71
2023/07/28 07:50:13;;;;;;;4.40;3.30;;;15.80;99.90;;;;;;5349352;23;656556;-69
2023/07/28 07:53:02;;;;;;;5.97;3.63;;;15.70;99.90;;;;;;5349600;23;657002;-71
2023/07/28 07:55:50;;;;;;;6.33;4.10;;;15.60;99.90;;;;;;5371640;23;656763;-71
2023/07/28 07:58:37;;;;;;;7.30;3.90;;;15.70;99.90;;;;;;5348402;23;658180;-71
2023/07/28 08:01:24;;;;;;;6.87;4.60;;;15.80;99.90;;;;;;5371777;23;656472;-71
2023/07/28 08:04:11;;;;;;;9.40;6.23;;;15.80;99.90;;;;;;5348089;23;656592;-72
2023/07/28 08:06:59;;;;;;;8.97;7.07;;;15.90;99.90;;;;;;5376097;23;656421;-71
2023/07/28 08:09:47;;;;;;;9.00;7.13;;;16.00;99.90;;;;;;5349517;23;656506;-72
2023/07/28 08:12:35;;;;;;;12.13;7.50;;;16.10;99.90;;;;;;5372544;23;656618;-71
2023/07/28 08:15:22;;;;;;;9.37;6.53;;;16.10;99.90;;;;;;5346074;23;658031;-71
2023/07/28 08:18:09;;;;;;;11.10;6.17;;;16.20;99.90;;;;;;5371815;23;656443;-71
2023/07/28 08:20:56;;;;;;;9.30;6.13;;;16.40;99.90;;;;;;5348451;23;657761;-71
2023/07/28 08:23:44;;;;;;;8.20;6.10;;;16.50;99.90;;;;;;5373003;23;657189;-71
2023/07/28 08:26:32;;;;;;;11.07;6.17;;;16.60;99.90;;;;;;5348672;23;657028;-71
2023/07/28 08:29:19;;;;;;;8.30;5.30;;;16.70;99.90;;;;;;5370930;23;658310;-71
2023/07/28 08:32:08;;;;;;;8.10;5.20;;;16.80;99.90;;;;;;5348668;23;656824;-71
2023/07/28 08:34:55;;;;;;;8.27;5.83;;;16.80;99.90;;;;;;5359396;23;657147;-72
2023/07/28 08:37:42;;;;;;;6.93;5.47;;;16.80;99.90;;;;;;5371504;23;657217;-70
2023/07/28 08:40:30;;;;;;;7.73;5.13;;;16.90;99.90;;;;;;5367628;23;657092;-72
2023/07/28 08:43:20;;;;;;;7.90;5.13;;;16.90;99.90;;;;;;5374426;23;656362;-71
2023/07/28 08:46:07;;;;;;;9.13;4.40;;;16.90;99.90;;;;;;5349995;23;657456;-72
2023/07/28 08:48:55;;;;;;;8.90;4.70;;;17.00;99.90;;;;;;5369329;23;656580;-72
2023/07/28 08:51:43;;;;;;;6.37;4.00;;;17.20;99.90;;;;;;5378273;23;657464;-72
2023/07/28 08:54:30;;;;;;;8.03;3.93;;;17.50;99.90;;;;;;5350884;23;656746;-72
2023/07/28 08:57:19;;;;;;;7.10;3.70;;;17.60;99.90;;;;;;5373099;23;657717;-71
2023/07/28 09:00:13;;;;;;;5.53;3.23;;;17.50;99.90;;;;;;5348797;23;656756;-74
2023/07/28 09:03:01;;;;;;;7.77;3.47;;;17.50;99.90;;;;;;5320571;23;656916;-72
2023/07/28 09:05:48;;;;;;;5.33;3.13;;;17.40;99.90;;;;;;5373428;23;657202;-72
2023/07/28 09:08:36;;;;;;;5.40;3.37;;;17.60;99.90;;;;;;5350096;23;656681;-73
2023/07/28 09:11:23;;;;;;;4.37;3.30;;;17.80;99.90;;;;;;5376727;23;657350;-72
2023/07/28 09:14:12;;;;;;;4.17;2.93;;;18.20;99.90;;;;;;5349685;23;656926;-72
2023/07/28 09:17:09;;;;;;;4.67;2.90;;;18.50;99.90;;;;;;5373509;23;656224;-71
2023/07/28 09:19:57;;;;;;;9.03;3.20;;;19.00;99.90;;;;;;5349544;23;657153;-72
2023/07/28 09:22:45;;;;;;;4.00;2.90;;;18.80;99.90;;;;;;5372811;23;656408;-71
2023/07/28 09:25:33;;;;;;;3.63;2.60;;;19.20;99.90;;;;;;5349607;23;656926;-71
2023/07/28 09:28:20;;;;;;;4.97;2.83;;;19.30;99.90;;;;;;5356605;23;657023;-72
2023/07/28 09:31:07;;;;;;;3.00;2.50;;;18.90;99.90;;;;;;5377403;23;656393;-71
2023/07/28 09:33:56;;;;;;;3.53;2.27;;;18.90;99.90;;;;;;5369262;23;657044;-72
2023/07/28 09:36:44;;;;;;;5.83;2.80;;;18.60;99.90;;;;;;5372346;23;656930;-72
2023/07/28 09:39:31;;;;;;;4.43;2.90;;;18.50;99.90;;;;;;5346019;23;657007;-71
2023/07/28 09:42:18;;;;;;;5.00;3.00;;;18.40;99.90;;;;;;5372908;23;657745;-72
2023/07/28 09:45:06;;;;;;;5.40;2.50;;;18.50;99.90;;;;;;5349535;23;656711;-71
2023/07/28 09:47:55;;;;;;;4.37;2.93;;;18.60;99.90;;;;;;5372180;23;657309;-71
2023/07/28 09:50:44;;;;;;;3.93;2.83;;;18.50;99.90;;;;;;5348468;23;657136;-71
2023/07/28 09:53:31;;;;;;;5.13;2.40;;;18.40;99.90;;;;;;5349621;23;656369;-71
2023/07/28 09:56:18;;;;;;;4.00;2.80;;;18.30;99.90;;;;;;5371639;23;657957;-71
2023/07/28 09:59:08;;;;;;;4.17;3.00;;;18.20;99.90;;;;;;5349582;23;656676;-71
2023/07/28 10:01:55;;;;;;;3.43;2.50;;;18.40;99.90;;;;;;5349684;23;656754;-71
2023/07/28 10:04:43;;;;;;;5.47;2.63;;;18.40;99.90;;;;;;5372861;23;657541;-71
2023/07/28 10:07:32;;;;;;;3.63;2.67;;;18.40;99.90;;;;;;5358207;23;657237;-72
2023/07/28 10:10:19;;;;;;;4.03;2.77;;;18.60;99.90;;;;;;5375921;23;656313;-71
2023/07/28 10:13:06;;;;;;;10.87;3.07;;;18.50;99.90;;;;;;5349676;23;657020;-72
2023/07/28 10:15:53;;;;;;;5.13;2.47;;;18.70;99.90;;;;;;5370914;23;657904;-73
2023/07/28 10:18:41;;;;;;;4.70;2.53;;;18.50;99.90;;;;;;5349627;23;657600;-72
2023/07/28 10:21:29;;;;;;;4.57;2.90;;;18.60;99.90;;;;;;5373212;23;657240;-72
2023/07/28 10:24:17;;;;;;;7.10;2.80;;;18.70;99.90;;;;;;5349546;23;656851;-71
2023/07/28 10:27:05;;;;;;;4.70;2.27;;;18.70;99.90;;;;;;5367527;23;656136;-70
2023/07/28 10:29:57;;;;;;;4.20;2.70;;;18.70;99.90;;;;;;5372195;23;657254;-70
2023/07/28 10:32:46;;;;;;;3.77;2.87;;;18.60;99.90;;;;;;5341131;23;656963;-72
2023/07/28 10:35:34;;;;;;;3.83;2.40;;;18.50;99.90;;;;;;5374218;23;657597;-74
2023/07/28 10:38:34;;;;;;;5.67;2.87;;;18.40;99.90;;;;;;5348751;23;656397;-73
2023/07/28 10:41:22;;;;;;;7.30;2.77;;;18.60;99.90;;;;;;5349286;23;656409;-73
2023/07/28 10:44:10;;;;;;;6.77;2.67;;;18.80;99.90;;;;;;5370052;23;657093;-74
2023/07/28 10:46:57;;;;;;;4.47;2.50;;;19.20;99.90;;;;;;5378757;23;656844;-73
2023/07/28 10:49:48;;;;;;;2.90;2.40;;;19.60;99.90;;;;;;5370993;23;656653;-74
2023/07/28 10:52:35;;;;;;;3.93;2.50;;;19.70;99.90;;;;;;5350479;23;657032;-70
2023/07/28 10:55:24;;;;;;;5.73;2.63;;;19.80;99.90;;;;;;5374023;23;657209;-68
2023/07/28 10:58:14;;;;;;;3.30;2.53;;;19.90;99.90;;;;;;5349820;23;657105;-68
2023/07/28 11:01:01;;;;;;;4.87;2.80;;;19.70;99.90;;;;;;5348950;23;656644;-70
2023/07/28 11:03:48;;;;;;;5.37;2.17;;;19.40;99.90;;;;;;5372580;23;656983;-72
2023/07/28 11:06:36;;;;;;;4.07;2.33;;;19.50;99.90;;;;;;5350255;23;656410;-72
2023/07/28 11:09:23;;;;;;;3.57;2.40;;;19.40;99.90;;;;;;5376328;23;656961;-73
2023/07/28 11:12:10;;;;;;;3.93;2.50;;;19.20;99.90;;;;;;5348245;23;656394;-69
2023/07/28 11:14:59;;;;;;;3.10;2.00;;;19.30;99.90;;;;;;5372238;23;656467;-71
2023/07/28 11:17:48;;;;;;;4.00;2.80;;;19.30;99.90;;;;;;5344928;23;656553;-70
2023/07/28 11:20:35;;;;;;;3.37;2.30;;;19.30;99.90;;;;;;5349102;23;656889;-69
2023/07/28 11:23:23;;;;;;;2.50;2.10;;;19.40;99.90;;;;;;5376044;23;657212;-71
2023/07/28 11:26:11;;;;;;;2.47;1.90;;;19.30;99.90;;;;;;5361300;23;656411;-70
2023/07/28 11:28:59;;;;;;;3.90;2.27;;;19.60;99.90;;;;;;5371177;23;656608;-70
2023/07/28 11:31:48;;;;;;;2.40;2.13;;;19.80;99.90;;;;;;5343939;23;656482;-71
2023/07/28 11:34:36;;;;;;;2.17;1.70;;;19.60;99.90;;;;;;5349638;23;656507;-72
2023/07/28 11:37:23;;;;;;;4.77;1.90;;;20.40;99.90;;;;;;5371792;23;656864;-69
2023/07/28 11:40:12;;;;;;;3.43;2.60;;;20.20;99.90;;;;;;5347938;23;656612;-69
2023/07/28 11:42:59;;;;;;;2.63;2.10;;;19.90;99.90;;;;;;5370815;23;655997;-70
2023/07/28 11:45:46;;;;;;;2.10;1.90;;;20.20;99.90;;;;;;5342589;23;656453;-70
2023/07/28 11:48:36;;;;;;;3.60;2.03;;;20.40;99.90;;;;;;5377077;23;656616;-70
2023/07/28 11:51:23;;;;;;;5.00;2.30;;;20.60;99.90;;;;;;5344325;23;657172;-70
2023/07/28 11:54:12;;;;;;;5.20;2.23;;;20.70;99.90;;;;;;5354030;23;656916;-72
2023/07/28 11:56:59;;;;;;;5.50;2.00;;;20.90;99.90;;;;;;5371529;23;656722;-71
2023/07/28 11:59:46;;;;;;;3.67;2.20;;;20.80;99.90;;;;;;5343632;23;657332;-71
2023/07/28 12:02:33;;;;;;;3.80;2.30;;;20.80;99.90;;;;;;5371649;23;657272;-71
2023/07/28 12:05:22;;;;;;;3.30;1.90;;;20.70;99.90;;;;;;5348837;23;657060;-72
2023/07/28 12:08:09;;;;;;;3.90;2.30;;;20.70;99.90;;;;;;5370995;23;656131;-71
2023/07/28 12:10:56;;;;;;;5.23;2.20;;;20.50;99.90;;;;;;5349915;23;656965;-69
2023/07/28 12:13:50;;;;;;;3.87;2.30;;;20.90;99.90;;;;;;5371385;23;657020;-71
2023/07/28 12:16:40;;;;;;;2.53;1.70;;;21.60;99.90;;;;;;5348433;23;656540;-71
2023/07/28 12:19:27;;;;;;;3.07;2.00;;;21.80;99.90;;;;;;5343293;23;657682;-72
2023/07/28 12:22:16;;;;;;;2.87;1.90;;;21.80;99.90;;;;;;5371835;23;656478;-68
2023/07/28 12:25:04;;;;;;;3.13;2.20;;;21.80;99.90;;;;;;5343601;23;657179;-71
2023/07/28 12:27:51;;;;;;;2.93;2.17;;;21.70;99.90;;;;;;5349716;23;656954;-69
2023/07/28 12:30:39;;;;;;;3.30;2.03;;;21.70;99.90;;;;;;5372192;23;656684;-69
2023/07/28 12:33:26;;;;;;;3.87;2.00;;;21.70;99.90;;;;;;5346854;23;656719;-72
2023/07/28 12:36:13;;;;;;;3.57;1.93;;;21.10;99.90;;;;;;5371995;23;658404;-72
2023/07/28 12:39:03;;;;;;;2.43;1.90;;;20.80;99.90;;;;;;5348398;23;657020;-71
2023/07/28 12:41:50;;;;;;;4.10;2.13;;;20.90;99.90;;;;;;5351315;23;656473;-71
2023/07/28 12:44:38;;;;;;;2.83;2.10;;;20.80;99.90;;;;;;5371109;23;657928;-72
2023/07/28 12:47:25;;;;;;;4.53;2.00;;;20.50;99.90;;;;;;5357135;23;656864;-72
2023/07/28 12:50:12;;;;;;;5.93;1.80;;;20.40;99.90;;;;;;5375649;23;657958;-72
2023/07/28 12:53:00;;;;;;;4.40;2.10;;;20.50;99.90;;;;;;5371488;23;656620;-70
2023/07/28 12:55:49;;;;;;;4.03;2.07;;;20.60;99.90;;;;;;5376052;23;657585;-71
2023/07/28 12:58:36;;;;;;;3.90;1.77;;;21.20;99.90;;;;;;5348833;23;656521;-69
2023/07/28 13:01:23;;;;;;;2.83;1.97;;;22.00;99.90;;;;;;5372028;23;657246;-70
2023/07/28 13:04:11;;;;;;;3.07;1.40;;;22.60;99.90;;;;;;5349477;23;656370;-71
2023/07/28 13:06:58;;;;;;;2.10;1.63;;;22.60;99.90;;;;;;5371069;23;657496;-69
2023/07/28 13:09:45;;;;;;;4.67;1.73;;;22.70;99.90;;;;;;5348612;23;656397;-70
2023/07/28 13:12:34;;;;;;;4.20;1.50;;;22.10;99.90;;;;;;5376755;23;657363;-69
2023/07/28 13:15:21;;;;;;;4.00;1.50;;;21.80;99.90;;;;;;5347642;23;656595;-71
2023/07/28 13:18:08;;;;;;;3.40;1.40;;;21.80;99.90;;;;;;5370778;23;656925;-71
2023/07/28 13:20:55;;;;;;;1.90;1.60;;;22.30;99.90;;;;;;5348119;23;656679;-69
2023/07/28 13:23:43;;;;;;;2.13;1.60;;;22.50;99.90;;;;;;5371915;23;658700;-69
2023/07/28 13:26:30;;;;;;;1.63;1.40;;;22.50;99.90;;;;;;5362527;23;656848;-71
2023/07/28 13:29:19;;;;;;;1.10;1.00;;;22.30;99.90;;;;;;5377773;23;658137;-71
2023/07/28 13:32:17;;;;;;;1.43;1.30;;;21.80;99.90;;;;;;5350499;23;656512;-71
2023/07/28 13:35:06;;;;;;;2.00;1.00;;;22.10;99.90;;;;;;5372189;23;656463;-71
2023/07/28 13:37:53;;;;;;;1.13;1.00;;;22.50;99.90;;;;;;5370469;23;657367;-69
2023/07/28 13:40:41;;;;;;;1.20;1.10;;;22.70;99.90;;;;;;5350785;23;657145;-69
2023/07/28 13:43:28;;;;;;;1.50;1.00;;;22.80;99.90;;;;;;5378234;23;657162;-71
2023/07/28 13:46:17;;;;;;;2.23;0.97;;;23.10;99.90;;;;;;5350366;23;656923;-70
2023/07/28 13:49:04;;;;;;;0.93;0.83;;;23.30;99.90;;;;;;5372888;23;656327;-70
2023/07/28 13:51:51;;;;;;;1.07;0.90;;;23.40;99.90;;;;;;5350228;23;656572;-70
2023/07/28 13:54:38;;;;;;;1.57;1.00;;;23.80;99.90;;;;;;5373057;23;657120;-68
2023/07/28 13:57:25;;;;;;;1.73;1.00;;;23.70;99.90;;;;;;5349719;23;656627;-70
2023/07/28 14:00:14;;;;;;;1.43;1.10;;;23.60;99.90;;;;;;5372311;23;657576;-71
2023/07/28 14:03:03;;;;;;;1.20;1.00;;;23.10;99.90;;;;;;5350462;23;656344;-71
2023/07/28 14:05:50;;;;;;;1.85;0.98;;;23.70;99.90;;;;;;5360734;23;656499;-69
2023/07/28 14:08:37;;;;;;;2.43;0.90;;;23.80;99.90;;;;;;5377800;23;656660;-70
2023/07/28 14:11:25;;;;;;;3.83;1.27;;;22.80;99.90;;;;;;5370264;23;656773;-68
2023/07/28 14:14:12;;;;;;;0.70;0.70;;;23.00;99.90;;;;;;5377363;23;656718;-68
2023/07/28 14:16:59;;;;;;;1.47;1.03;;;23.30;99.90;;;;;;5377988;23;656549;-69
2023/07/28 14:19:48;;;;;;;3.43;1.00;;;23.50;99.90;;;;;;5349886;23;656350;-71